Time;durP1;ratioP1;P1;durP2;ratioP2;P2;SDS_P1;SDS_P2;PMS_P1;PMS_P2;Temp;Humidity;BMP_temperature;BMP_pressure;BME280_temperature;BME280_humidity;BME280_pressure;Samples;Min_cycle;Max_cycle;Signal;HPM_P1;HPM_P2
2021/12/25 00:02:01;;;;;;;46.10;25.90;;;;;;;1.12;74.84;99646.90;105917;1275;73451;-85
2021/12/25 00:04:30;;;;;;;42.60;24.40;;;;;;;1.07;74.65;99649.73;106030;1273;58912;-84
2021/12/25 00:06:59;;;;;;;30.70;19.40;;;;;;;1.02;74.05;99655.27;105876;1273;61383;-86
2021/12/25 00:09:29;;;;;;;31.50;18.70;;;;;;;0.99;74.45;99661.61;105773;1276;71633;-84
2021/12/25 00:11:58;;;;;;;36.90;20.20;;;;;;;0.98;75.22;99661.69;105571;1276;69861;-86
2021/12/25 00:14:27;;;;;;;29.70;17.70;;;;;;;1.00;75.03;99660.05;105753;1273;68137;-85
2021/12/25 00:16:58;;;;;;;28.40;16.70;;;;;;;1.05;74.68;99658.22;105401;1276;75151;-87
2021/12/25 00:19:27;;;;;;;27.80;16.70;;;;;;;1.12;75.58;99658.55;105714;1273;61225;-86
2021/12/25 00:21:56;;;;;;;27.40;16.00;;;;;;;1.15;75.46;99649.52;105777;1272;61683;-86
2021/12/25 00:24:25;;;;;;;26.40;15.60;;;;;;;1.18;75.36;99651.23;105522;1278;71749;-85
2021/12/25 00:27:22;;;;;;;23.50;14.90;;;;;;;1.18;75.37;99649.17;105647;1275;71450;-87
2021/12/25 00:30:09;;;;;;;20.50;12.40;;;;;;;1.16;74.90;99661.26;105753;1275;69580;-85
2021/12/25 00:32:59;;;;;;;24.20;13.90;;;;;;;1.16;74.49;99656.15;105715;1274;73332;-85
2021/12/25 00:35:28;;;;;;;23.30;13.70;;;;;;;1.19;74.64;99663.56;105751;1275;61305;-85
2021/12/25 00:37:57;;;;;;;22.70;13.60;;;;;;;1.16;75.02;99671.08;105431;1276;59488;-84
2021/12/25 00:40:28;;;;;;;22.40;13.90;;;;;;;1.09;75.24;99679.48;105646;1275;72603;-84
2021/12/25 00:42:57;;;;;;;21.50;13.50;;;;;;;1.01;75.42;99684.33;105745;1272;72642;-86
2021/12/25 00:45:27;;;;;;;21.20;13.90;;;;;;;0.91;74.71;99684.66;105592;1275;70959;-86
2021/12/25 00:47:56;;;;;;;24.00;14.20;;;;;;;0.79;75.31;99687.79;105582;1275;71733;-85
2021/12/25 00:50:25;;;;;;;20.20;12.90;;;;;;;0.67;74.95;99687.02;105548;1275;59888;-85
2021/12/25 00:52:53;;;;;;;21.90;13.20;;;;;;;0.57;75.17;99684.25;105564;1275;59908;-86
2021/12/25 00:55:22;;;;;;;23.80;13.60;;;;;;;0.48;74.99;99683.97;105663;1272;73345;-85
2021/12/25 00:57:52;;;;;;;20.90;13.10;;;;;;;0.42;76.17;99677.92;105583;1272;69982;-84
2021/12/25 01:00:21;;;;;;;19.20;13.10;;;;;;;0.34;76.76;99679.98;105560;1276;68765;-85
2021/12/25 01:02:50;;;;;;;20.70;13.00;;;;;;;0.25;75.67;99678.69;105584;1278;72085;-84
2021/12/25 01:05:20;;;;;;;20.90;13.00;;;;;;;0.18;75.77;99684.68;105641;1275;59507;-83
2021/12/25 01:07:49;;;;;;;19.00;12.10;;;;;;;0.10;75.99;99680.59;105683;1275;61399;-84
2021/12/25 01:10:24;;;;;;;19.10;12.10;;;;;;;0.02;76.27;99681.31;107508;1275;73071;-81
2021/12/25 01:13:04;;;;;;;21.70;13.00;;;;;;;-0.07;75.97;99679.32;105970;1275;71985;-85
2021/12/25 01:31:33;;;;;;;17.50;11.00;;;;;;;-0.65;78.82;99677.55;105582;1275;69627;-84
2021/12/25 01:50:16;;;;;;;21.70;12.90;;;;;;;-1.10;77.43;99684.41;105607;1276;69245;-84
2021/12/25 01:52:46;;;;;;;20.60;12.40;;;;;;;-1.11;77.48;99682.58;105431;1276;71031;-84
2021/12/25 01:55:24;;;;;;;18.20;10.70;;;;;;;-1.12;77.82;99685.16;105675;1272;59127;-84
2021/12/25 01:57:55;;;;;;;17.60;11.20;;;;;;;-1.14;77.32;99687.66;105694;1272;61342;-84
2021/12/25 02:00:28;;;;;;;20.70;12.00;;;;;;;-1.14;78.22;99688.01;105630;1275;73458;-82
2021/12/25 02:02:57;;;;;;;;;;;;;;;-1.16;77.53;99693.36;105691;1275;70767;-86
2021/12/25 02:05:26;;;;;;;19.80;11.00;;;;;;;-1.17;77.66;99695.29;105681;1275;69185;-84
2021/12/25 02:08:16;;;;;;;16.70;9.70;;;;;;;-1.17;77.63;99693.42;105507;1275;73183;-84
2021/12/25 02:10:46;;;;;;;18.90;10.90;;;;;;;-1.20;78.44;99692.52;105627;1275;60938;-84
2021/12/25 02:13:17;;;;;;;20.20;11.20;;;;;;;-1.22;78.27;99688.52;105577;1275;62163;-83
2021/12/25 02:15:50;;;;;;;20.20;11.40;;;;;;;-1.24;78.86;99687.39;105671;1274;71271;-82
2021/12/25 02:18:28;;;;;;;;;;;;;;;-1.24;78.45;99687.04;106188;1276;69665;-85
2021/12/25 02:21:57;;;;;;;18.40;10.30;;;;;;;-1.24;79.00;99694.55;105491;1272;71582;-85
2021/12/25 02:24:27;;;;;;;16.20;10.40;;;;;;;-1.27;79.33;99697.40;105670;1275;75435;-84
2021/12/25 02:26:57;;;;;;;19.30;10.60;;;;;;;-1.31;78.58;99698.75;105601;1272;59447;-85
2021/12/25 02:29:26;;;;;;;18.30;10.50;;;;;;;-1.37;79.71;99695.73;105493;1276;59294;-85
2021/12/25 02:31:56;;;;;;;22.60;11.80;;;;;;;-1.41;79.04;99694.02;105626;1272;70376;-84
2021/12/25 02:34:25;;;;;;;18.20;10.90;;;;;;;-1.45;78.03;99690.58;105465;1275;70844;-84
2021/12/25 02:36:55;;;;;;;19.10;11.50;;;;;;;-1.46;78.11;99691.52;105477;1275;70545;-84
2021/12/25 02:39:24;;;;;;;19.50;12.10;;;;;;;-1.48;78.32;99691.56;105383;1275;74718;-85
2021/12/25 02:41:53;;;;;;;19.10;11.90;;;;;;;-1.45;78.48;99687.86;105592;1272;59975;-85
2021/12/25 02:44:25;;;;;;;20.10;12.20;;;;;;;-1.39;79.27;99690.69;105457;1276;61181;-84
2021/12/25 02:46:55;;;;;;;17.70;11.70;;;;;;;-1.36;79.24;99692.11;105623;1275;74583;-86
2021/12/25 02:49:24;;;;;;;20.30;12.10;;;;;;;-1.33;79.15;99691.48;105403;1278;72923;-84
2021/12/25 02:51:53;;;;;;;17.90;10.50;;;;;;;-1.34;78.92;99694.25;105694;1275;70916;-85
2021/12/25 02:54:23;;;;;;;18.30;11.30;;;;;;;-1.37;80.13;99689.41;105743;1272;73585;-86
2021/12/25 02:56:52;;;;;;;19.40;10.90;;;;;;;-1.39;80.22;99693.74;105625;1277;59653;-85
2021/12/25 02:59:21;;;;;;;17.80;11.80;;;;;;;-1.41;79.69;99694.02;105466;1278;60211;-85
2021/12/25 03:02:13;;;;;;;18.60;11.80;;;;;;;-1.47;80.04;99700.25;105846;1275;72665;-86
2021/12/25 03:04:49;;;;;;;16.10;10.10;;;;;;;-1.52;79.75;99706.23;106039;1275;70451;-86
2021/12/25 03:07:18;;;;;;;19.40;11.40;;;;;;;-1.56;79.40;99708.11;105771;1275;68089;-84
2021/12/25 03:09:50;;;;;;;22.70;11.80;;;;;;;-1.58;78.79;99705.45;105724;1273;72055;-86
2021/12/25 03:12:30;;;;;;;22.20;12.80;;;;;;;-1.59;79.49;99708.73;105586;1273;60514;-84
2021/12/25 03:15:15;;;;;;;20.70;11.80;;;;;;;-1.59;79.22;99715.39;105517;1278;59270;-85
2021/12/25 03:17:45;;;;;;;20.60;13.10;;;;;;;-1.58;79.87;99720.31;105513;1275;73631;-84
2021/12/25 03:20:13;;;;;;;20.30;11.50;;;;;;;-1.58;79.31;99726.63;105559;1275;72083;-84
2021/12/25 03:22:42;;;;;;;19.40;12.00;;;;;;;-1.55;80.27;99730.77;105324;1275;68030;-84
2021/12/25 03:25:16;;;;;;;22.20;12.50;;;;;;;-1.53;80.22;99728.48;105444;1275;71259;-84
2021/12/25 03:27:46;;;;;;;20.40;12.10;;;;;;;-1.49;81.32;99732.60;105283;1275;62215;-84
2021/12/25 03:30:17;;;;;;;22.90;14.20;;;;;;;-1.56;80.67;99724.65;105454;1275;59367;-84
2021/12/25 03:32:45;;;;;;;18.70;11.80;;;;;;;-1.51;80.02;99734.56;105661;1275;72825;-84
2021/12/25 03:35:14;;;;;;;21.00;12.40;;;;;;;-1.52;79.50;99740.06;105526;1278;70117;-84
2021/12/25 03:37:45;;;;;;;22.10;13.20;;;;;;;-1.53;79.43;99740.94;105438;1276;69791;-84
2021/12/25 03:40:13;;;;;;;20.90;12.60;;;;;;;-1.53;79.67;99741.45;105585;1275;73588;-86
2021/12/25 03:42:43;;;;;;;19.10;11.20;;;;;;;-1.53;80.04;99742.65;105530;1274;59868;-85
2021/12/25 03:45:12;;;;;;;14.00;8.60;;;;;;;-1.54;79.64;99747.98;105612;1275;60537;-84
2021/12/25 03:47:42;;;;;;;17.70;10.70;;;;;;;-1.48;80.43;99746.22;105719;1272;74015;-84
2021/12/25 03:58:22;;;;;;;15.50;9.20;;;;;;;-1.34;80.78;99770.63;105822;1275;60502;-85
2021/12/25 04:00:58;;;;;;;14.20;9.20;;;;;;;-1.32;79.73;99770.53;105692;1275;59247;-84
2021/12/25 04:04:03;;;;;;;12.10;8.20;;;;;;;-1.33;80.03;99770.90;106241;1277;73643;-85
2021/12/25 04:06:35;;;;;;;13.40;8.30;;;;;;;-1.33;80.08;99767.68;105539;1275;70694;-84
2021/12/25 04:09:10;;;;;;;14.80;8.90;;;;;;;-1.33;80.96;99775.00;105493;1278;71063;-85
2021/12/25 04:11:41;;;;;;;13.60;8.90;;;;;;;-1.28;80.70;99780.48;105527;1275;74777;-84
2021/12/25 04:14:09;;;;;;;12.60;8.10;;;;;;;-1.19;81.78;99788.30;105469;1278;60890;-84
2021/12/25 04:16:39;;;;;;;12.60;7.70;;;;;;;-1.17;81.42;99795.26;105536;1278;61285;-84
2021/12/25 04:19:08;;;;;;;13.00;8.20;;;;;;;-1.10;80.80;99797.02;105532;1274;74161;-83
2021/12/25 04:21:47;;;;;;;11.40;7.00;;;;;;;-1.06;80.42;99804.05;105521;1278;70769;-85
2021/12/25 04:24:16;;;;;;;16.50;8.10;;;;;;;-1.01;80.66;99808.63;105347;1277;68760;-84
2021/12/25 04:26:48;;;;;;;14.20;8.70;;;;;;;-0.97;80.63;99804.53;105530;1275;73325;-86
2021/12/25 04:49:44;;;;;;;16.00;9.50;;;;;;;-0.73;80.47;99846.89;105360;1275;60549;-85
2021/12/25 05:06:18;;;;;;;10.80;7.00;;;;;;;-0.54;80.95;99863.20;105510;1274;61060;-85
2021/12/25 05:08:46;;;;;;;10.60;7.00;;;;;;;-0.56;80.72;99864.98;105553;1275;74129;-85
2021/12/25 05:11:15;;;;;;;12.10;6.30;;;;;;;-0.57;80.56;99869.47;105463;1275;71498;-82
2021/12/25 05:13:46;;;;;;;11.10;6.60;;;;;;;-0.54;80.93;99872.07;105569;1272;69788;-84
2021/12/25 05:16:18;;;;;;;14.80;8.00;;;;;;;-0.51;80.60;99874.38;105699;1273;73764;-83
2021/12/25 05:18:49;;;;;;;11.70;6.40;;;;;;;-0.49;80.26;99878.92;105588;1272;60298;-84
2021/12/25 05:21:19;;;;;;;10.40;6.60;;;;;;;-0.42;80.85;99880.52;105131;1275;481827;-84
2021/12/25 05:23:48;;;;;;;9.60;5.90;;;;;;;-0.40;80.87;99884.21;105497;1273;75290;-86
2021/12/25 05:26:22;;;;;;;11.70;7.00;;;;;;;-0.47;80.63;99882.94;105563;1275;72640;-87
2021/12/25 05:28:59;;;;;;;11.70;7.00;;;;;;;-0.56;80.65;99880.70;105708;1275;68328;-87
2021/12/25 05:31:36;;;;;;;9.20;6.40;;;;;;;-0.61;80.48;99877.52;105549;1275;73140;-85
2021/12/25 05:34:17;;;;;;;11.30;6.60;;;;;;;-0.64;80.55;99876.07;105665;1276;60213;-84
2021/12/25 05:36:54;;;;;;;10.80;6.30;;;;;;;-0.61;80.76;99878.89;106311;1272;59068;-84
2021/12/25 05:39:23;;;;;;;10.70;6.10;;;;;;;-0.55;81.30;99887.00;106850;1275;70955;-84
2021/12/25 05:41:53;;;;;;;9.70;5.90;;;;;;;-0.52;81.43;99898.68;105650;1276;70450;-87
2021/12/25 05:44:25;;;;;;;10.70;6.50;;;;;;;-0.45;81.36;99896.36;105847;1272;67958;-88
2021/12/25 05:47:07;;;;;;;;;;;;;;;-0.41;81.32;99891.23;105662;1275;74001;-87
2021/12/25 05:49:40;;;;;;;11.90;6.60;;;;;;;-0.39;81.34;99894.41;105882;1275;60491;-85
2021/12/25 05:52:16;;;;;;;9.60;5.90;;;;;;;-0.38;81.48;99903.30;106668;1274;58875;-88
2021/12/25 05:55:05;;;;;;;10.80;7.40;;;;;;;-0.38;81.64;99903.77;105536;1277;73656;-87
2021/12/25 05:58:24;;;;;;;11.40;7.20;;;;;;;-0.36;81.12;99911.38;105276;1278;74154;-89
2021/12/25 06:01:12;;;;;;;12.80;7.50;;;;;;;-0.33;81.12;99915.54;105840;1275;69769;-82
2021/12/25 06:03:41;;;;;;;9.60;7.00;;;;;;;-0.26;80.87;99920.59;105633;1276;71588;-86
2021/12/25 06:06:10;;;;;;;10.30;6.80;;;;;;;-0.16;80.97;99923.95;106278;1275;61741;-84
2021/12/25 06:08:38;;;;;;;12.60;8.00;;;;;;;-0.02;80.92;99930.23;105753;1275;61007;-80
2021/12/25 06:11:08;;;;;;;11.40;7.00;;;;;;;0.13;81.48;99932.82;105434;1275;74223;-83
2021/12/25 06:13:44;;;;;;;12.40;8.30;;;;;;;0.32;81.61;99934.79;105484;1275;70145;-82
2021/12/25 06:16:14;;;;;;;12.80;7.20;;;;;;;0.47;81.56;99932.45;105356;1276;70624;-79
2021/12/25 06:18:50;;;;;;;12.60;7.80;;;;;;;0.58;81.40;99933.87;105505;1275;72158;-80
2021/12/25 06:21:25;;;;;;;12.90;8.30;;;;;;;0.66;80.88;99932.96;105479;1272;62670;-83
2021/12/25 06:24:04;;;;;;;10.00;7.50;;;;;;;0.78;80.79;99931.77;105535;1276;60873;-72
2021/12/25 06:26:47;;;;;;;41.50;21.00;;;;;;;0.91;80.91;99939.73;105458;1275;73877;-70
2021/12/25 06:29:57;;;;;;;34.40;22.00;;;;;;;1.03;81.03;99942.63;105230;1275;71279;-72
2021/12/25 06:32:45;;;;;;;11.70;7.90;;;;;;;1.15;80.91;99949.63;105253;1278;68352;-71
2021/12/25 06:35:32;;;;;;;14.00;7.60;;;;;;;1.24;80.70;99946.13;105391;1272;70181;-68
2021/12/25 06:38:01;;;;;;;11.50;8.30;;;;;;;1.32;80.42;99945.41;105310;1277;59770;-69
2021/12/25 06:40:43;;;;;;;19.20;11.30;;;;;;;1.41;80.21;99944.83;105396;1274;60315;-71
2021/12/25 06:43:12;;;;;;;18.10;11.00;;;;;;;1.48;80.34;99945.56;105502;1275;72762;-71
2021/12/25 06:45:41;;;;;;;21.50;12.40;;;;;;;1.55;79.68;99947.58;105301;1278;69668;-68
2021/12/25 06:48:11;;;;;;;23.00;16.90;;;;;;;1.62;79.90;99948.52;105538;1275;66979;-70
2021/12/25 06:50:58;;;;;;;22.50;12.60;;;;;;;1.71;79.65;99961.29;105464;1275;71841;-70
2021/12/25 06:53:42;;;;;;;18.90;12.90;;;;;;;1.77;79.57;99954.63;105282;1277;59161;-70
2021/12/25 06:56:22;;;;;;;16.70;10.90;;;;;;;1.88;79.49;99958.91;105292;1275;60435;-77
2021/12/25 06:58:58;;;;;;;16.50;10.40;;;;;;;2.00;79.40;99960.91;105422;1274;73621;-78
2021/12/25 07:01:28;;;;;;;17.10;12.30;;;;;;;2.10;79.93;99960.61;105241;1275;73620;-73
2021/12/25 07:03:57;;;;;;;16.10;11.30;;;;;;;2.24;80.26;99957.99;105284;1274;71020;-79
2021/12/25 07:06:44;;;;;;;17.40;12.50;;;;;;;2.40;79.84;99961.85;105420;1275;72756;-75
2021/12/25 07:10:05;;;;;;;18.70;11.60;;;;;;;2.57;79.42;99961.98;104930;1278;58803;-72
2021/12/25 07:13:00;;;;;;;17.80;11.60;;;;;;;2.68;79.09;99961.94;105391;1278;61720;-75
2021/12/25 07:16:14;;;;;;;16.20;9.10;;;;;;;2.85;79.17;99966.07;105300;1277;75089;-75
2021/12/25 07:18:54;;;;;;;11.70;7.80;;;;;;;2.97;79.33;99970.09;105421;1277;73209;-74
2021/12/25 07:21:44;;;;;;;15.10;10.00;;;;;;;3.04;79.20;99972.10;105312;1275;71630;-76
2021/12/25 07:24:16;;;;;;;12.80;8.90;;;;;;;3.13;78.85;99986.79;105530;1275;74855;-79
2021/12/25 07:26:53;;;;;;;8.60;6.30;;;;;;;3.28;78.73;99989.92;105344;1277;62936;-75
2021/12/25 07:29:41;;;;;;;14.10;9.40;;;;;;;3.49;78.90;99995.70;105386;1275;59276;-74
2021/12/25 07:32:10;;;;;;;14.60;9.60;;;;;;;3.66;78.58;100001.11;105450;1275;73611;-74
2021/12/25 07:34:40;;;;;;;11.70;8.10;;;;;;;3.84;78.25;100003.05;105635;1275;73081;-73
2021/12/25 07:37:08;;;;;;;12.70;7.60;;;;;;;4.01;77.47;100006.71;105620;1272;70180;-75
2021/12/25 07:39:37;;;;;;;15.70;11.10;;;;;;;4.14;76.82;100003.59;105465;1275;73961;-75
2021/12/25 07:42:07;;;;;;;18.30;12.70;;;;;;;4.25;76.73;100004.17;105313;1277;62641;-74
2021/12/25 07:45:21;;;;;;;13.20;8.60;;;;;;;4.41;77.26;100005.67;105004;1275;60764;-75
2021/12/25 07:47:58;;;;;;;13.20;9.70;;;;;;;4.49;75.67;100007.58;105416;1275;73685;-86
2021/12/25 07:50:32;;;;;;;13.40;9.30;;;;;;;4.59;76.44;100015.67;105836;1275;72654;-74
2021/12/25 07:53:01;;;;;;;12.60;8.40;;;;;;;4.73;76.07;100026.91;105629;1276;70223;-74
2021/12/25 07:55:32;;;;;;;11.20;6.90;;;;;;;4.92;75.70;100025.60;105410;1272;74270;-74
2021/12/25 07:58:06;;;;;;;13.70;7.20;;;;;;;5.14;76.03;100012.18;105167;1276;62025;-72
2021/12/25 08:00:35;;;;;;;11.30;7.60;;;;;;;5.29;75.91;100014.38;105481;1275;61268;-76
2021/12/25 08:03:04;;;;;;;11.10;7.50;;;;;;;5.34;74.72;100022.89;105501;1276;73132;-75
2021/12/25 08:05:34;;;;;;;9.00;6.00;;;;;;;5.41;74.91;100020.34;105403;1275;71661;-79
2021/12/25 08:08:06;;;;;;;11.90;8.30;;;;;;;5.49;74.14;100005.73;105465;1275;70077;-80
2021/12/25 08:10:35;;;;;;;14.40;9.50;;;;;;;5.60;74.56;100028.19;105516;1275;73839;-80
2021/12/25 08:13:05;;;;;;;12.90;8.30;;;;;;;5.56;74.18;100044.31;105443;1275;60430;-81
2021/12/25 08:15:34;;;;;;;14.70;8.70;;;;;;;5.51;73.85;100060.50;105513;1275;62364;-79
2021/12/25 08:18:03;;;;;;;12.30;6.60;;;;;;;5.46;73.36;100079.48;105520;1277;73987;-79
2021/12/25 08:20:35;;;;;;;8.00;5.70;;;;;;;5.57;72.02;100094.72;105488;1278;73161;-79
2021/12/25 08:23:58;;;;;;;10.10;6.10;;;;;;;5.64;70.14;100098.40;105559;1275;69099;-77
2021/12/25 08:27:18;;;;;;;13.70;7.50;;;;;;;5.69;70.72;100101.02;105512;1278;71508;-79
2021/12/25 08:30:10;;;;;;;8.30;5.10;;;;;;;5.81;69.84;100129.48;105527;1275;62210;-80
2021/12/25 08:32:59;;;;;;;10.40;5.90;;;;;;;5.93;69.11;100126.56;105465;1275;61360;-77
2021/12/25 08:36:17;;;;;;;9.60;6.70;;;;;;;5.87;68.62;100126.52;105022;1279;71907;-78
2021/12/25 08:38:46;;;;;;;10.10;6.70;;;;;;;5.79;68.57;100119.81;105564;1275;70152;-79
2021/12/25 08:41:17;;;;;;;11.40;5.90;;;;;;;5.71;68.81;100128.01;105582;1278;68756;-79
2021/12/25 08:43:48;;;;;;;11.70;8.30;;;;;;;5.75;68.52;100138.98;105644;1275;73999;-79
2021/12/25 08:46:25;;;;;;;13.50;8.10;;;;;;;5.69;69.12;100146.66;105591;1275;62709;-80
2021/12/25 08:48:54;;;;;;;9.80;6.00;;;;;;;5.72;68.41;100144.04;105541;1275;59590;-81
2021/12/25 08:51:24;;;;;;;12.40;7.80;;;;;;;5.73;67.77;100142.92;105630;1275;70899;-77
2021/12/25 08:53:53;;;;;;;12.00;7.50;;;;;;;5.59;67.19;100146.08;105579;1275;69412;-81
2021/12/25 08:56:22;;;;;;;13.30;7.80;;;;;;;5.61;67.59;100159.61;105781;1275;69074;-81
2021/12/25 08:58:51;;;;;;;13.00;8.30;;;;;;;5.56;67.68;100146.20;105608;1275;73923;-81
2021/12/25 09:01:20;;;;;;;14.00;7.30;;;;;;;5.53;67.87;100157.78;105641;1275;60044;-80
2021/12/25 09:03:49;;;;;;;13.40;8.00;;;;;;;5.49;67.71;100157.02;105592;1275;59451;-80
2021/12/25 09:06:18;;;;;;;13.00;8.50;;;;;;;5.48;67.71;100152.92;105685;1275;70933;-79
2021/12/25 09:08:47;;;;;;;16.10;9.10;;;;;;;5.32;67.81;100161.16;105725;1275;72016;-80
2021/12/25 09:11:17;;;;;;;13.20;8.20;;;;;;;5.26;67.80;100165.27;105630;1275;70839;-77
2021/12/25 09:13:47;;;;;;;12.70;8.30;;;;;;;5.35;67.51;100169.96;105545;1275;70733;-79
2021/12/25 09:16:16;;;;;;;14.90;9.40;;;;;;;5.30;67.80;100161.25;105526;1273;60443;-78
2021/12/25 09:18:46;;;;;;;13.80;9.20;;;;;;;5.27;67.13;100162.98;105480;1275;59052;-80
2021/12/25 09:21:16;;;;;;;17.00;11.80;;;;;;;5.29;67.35;100165.66;105465;1275;73600;-79
2021/12/25 09:23:45;;;;;;;12.80;8.40;;;;;;;5.24;67.12;100178.89;105461;1275;70217;-78
2021/12/25 09:26:16;;;;;;;14.40;8.60;;;;;;;5.31;66.86;100186.03;105468;1277;70981;-78
2021/12/25 09:28:46;;;;;;;13.80;9.40;;;;;;;5.22;66.88;100181.73;105418;1277;74795;-78
2021/12/25 09:31:16;;;;;;;13.10;8.40;;;;;;;5.19;67.82;100193.86;105382;1273;60191;-77
2021/12/25 09:33:45;;;;;;;15.10;8.60;;;;;;;5.23;67.20;100202.41;105450;1275;61350;-77
2021/12/25 09:36:19;;;;;;;14.80;9.30;;;;;;;5.26;67.26;100207.09;105499;1275;74165;-77
2021/12/25 09:38:49;;;;;;;14.30;8.80;;;;;;;5.24;67.38;100208.92;105450;1276;74106;-80
2021/12/25 09:41:18;;;;;;;13.90;8.40;;;;;;;5.25;67.11;100204.02;105302;1274;71050;-81
2021/12/25 09:43:48;;;;;;;11.70;7.10;;;;;;;5.26;66.47;100203.27;105513;1275;74560;-80
2021/12/25 09:46:20;;;;;;;11.20;7.30;;;;;;;5.26;65.50;100214.69;105571;1275;59875;-78
2021/12/25 09:48:52;;;;;;;12.40;6.90;;;;;;;5.23;65.32;100216.23;105568;1275;59763;-80
2021/12/25 09:51:23;;;;;;;;;;;;;;;5.19;65.40;100209.05;105475;1273;71421;-79
2021/12/25 09:54:15;;;;;;;10.80;6.40;;;;;;;5.07;65.36;100212.49;105484;1276;72315;-78
2021/12/25 09:56:49;;;;;;;12.00;6.90;;;;;;;5.17;65.63;100224.66;105305;1275;71075;-78
2021/12/25 09:59:18;;;;;;;11.10;6.90;;;;;;;5.13;65.12;100224.08;105528;1275;72941;-78
2021/12/25 10:01:55;;;;;;;12.00;6.70;;;;;;;5.12;65.52;100229.97;105451;1275;60287;-79
2021/12/25 10:04:52;;;;;;;11.80;7.20;;;;;;;5.26;64.95;100234.37;105331;1277;60611;-76
2021/12/25 10:07:24;;;;;;;8.00;5.20;;;;;;;5.26;65.37;100225.69;105589;1275;71581;-77
2021/12/25 10:10:13;;;;;;;13.10;7.20;;;;;;;5.29;65.61;100228.14;105547;1275;72619;-78
2021/12/25 10:12:47;;;;;;;9.90;6.10;;;;;;;5.31;64.87;100244.05;105518;1275;69238;-76
2021/12/25 10:15:25;;;;;;;8.50;5.50;;;;;;;5.39;64.88;100245.55;105508;1275;71187;-80
2021/12/25 10:17:58;;;;;;;8.10;5.10;;;;;;;5.37;64.60;100258.25;105455;1277;61513;-79
2021/12/25 10:20:31;;;;;;;8.60;4.70;;;;;;;5.52;64.37;100259.92;105499;1275;58955;-81
2021/12/25 10:23:15;;;;;;;8.70;5.20;;;;;;;5.56;62.92;100247.77;105467;1275;73021;-78
2021/12/25 10:25:58;;;;;;;7.80;5.10;;;;;;;5.43;63.21;100247.35;105596;1274;71843;-77
2021/12/25 10:28:38;;;;;;;6.30;4.40;;;;;;;5.43;62.98;100248.38;105594;1276;69703;-79
2021/12/25 10:31:16;;;;;;;12.50;7.20;;;;;;;5.47;62.73;100255.40;105623;1275;72444;-80
2021/12/25 10:33:51;;;;;;;10.30;6.40;;;;;;;5.30;63.07;100252.75;105295;1277;60020;-78
2021/12/25 10:36:35;;;;;;;9.20;5.50;;;;;;;5.36;63.44;100248.30;105573;1275;61374;-77
2021/12/25 10:39:08;;;;;;;5.30;3.10;;;;;;;5.40;62.93;100262.05;105656;1275;73565;-81
2021/12/25 10:42:03;;;;;;;7.20;4.50;;;;;;;5.43;62.58;100254.77;105638;1276;70872;-77
2021/12/25 10:44:37;;;;;;;7.00;4.70;;;;;;;5.39;63.10;100260.70;105681;1275;70081;-78
2021/12/25 10:47:15;;;;;;;9.90;5.80;;;;;;;5.38;62.89;100254.55;105530;1275;74770;-78
2021/12/25 10:49:54;;;;;;;7.50;5.00;;;;;;;5.45;62.92;100241.73;105440;1275;59058;-81
2021/12/25 10:52:33;;;;;;;9.00;5.30;;;;;;;5.46;62.60;100237.48;105604;1277;60575;-81
2021/12/25 10:55:13;;;;;;;9.60;5.00;;;;;;;5.44;62.84;100238.64;105621;1277;74255;-78
2021/12/25 10:57:44;;;;;;;8.10;5.50;;;;;;;5.51;62.64;100237.91;105548;1276;71998;-79
2021/12/25 11:00:22;;;;;;;19.70;9.70;;;;;;;5.64;62.53;100225.89;105601;1275;68481;-76
2021/12/25 11:03:09;;;;;;;11.60;5.90;;;;;;;5.88;62.98;100234.85;105590;1276;73278;-78
2021/12/25 11:05:49;;;;;;;9.50;6.10;;;;;;;6.14;61.65;100237.75;105528;1276;61050;-81
2021/12/25 11:08:22;;;;;;;9.60;6.50;;;;;;;6.16;62.09;100237.48;105614;1276;60552;-78
2021/12/25 11:10:55;;;;;;;9.90;6.30;;;;;;;6.11;61.69;100243.13;105563;1275;74157;-78
2021/12/25 11:13:31;;;;;;;11.50;7.10;;;;;;;6.18;61.51;100237.89;105609;1278;70763;-78
2021/12/25 11:16:08;;;;;;;10.60;8.20;;;;;;;6.21;61.33;100244.27;105579;1275;68189;-80
2021/12/25 11:21:58;;;;;;;;;;;;;;;5.84;61.94;100257.88;105358;1278;60998;-78
2021/12/25 11:24:36;;;;;;;11.60;6.50;;;;;;;5.69;62.07;100253.09;105446;1278;61815;-82
2021/12/25 11:27:07;;;;;;;10.70;7.00;;;;;;;5.66;62.49;100250.87;106159;1275;72796;-77
2021/12/25 11:29:38;;;;;;;9.10;6.40;;;;;;;5.69;62.28;100258.63;106529;1276;70127;-76
2021/12/25 11:32:12;;;;;;;12.50;7.20;;;;;;;5.61;62.43;100253.73;105860;1275;67961;-79
2021/12/25 11:34:40;;;;;;;11.90;7.40;;;;;;;5.65;62.74;100254.34;105731;1275;74393;-77
2021/12/25 11:37:09;;;;;;;9.90;6.50;;;;;;;5.77;62.47;100249.85;106097;1275;59262;-78
2021/12/25 11:39:44;;;;;;;11.10;6.70;;;;;;;5.76;61.83;100247.80;105790;1275;61174;-77
2021/12/25 11:42:13;;;;;;;10.60;6.80;;;;;;;5.54;61.81;100255.70;105548;1278;73496;-78
2021/12/25 11:44:52;;;;;;;11.90;6.40;;;;;;;5.51;61.99;100262.61;105455;1275;71940;-78
2021/12/25 11:47:39;;;;;;;10.70;6.40;;;;;;;5.38;62.23;100260.06;105637;1275;70195;-78
2021/12/25 11:50:34;;;;;;;10.30;6.10;;;;;;;5.32;63.10;100266.48;105648;1275;72406;-78
2021/12/25 11:53:25;;;;;;;9.60;5.60;;;;;;;5.42;62.94;100267.80;105608;1277;61520;-79
2021/12/25 11:58:52;;;;;;;8.10;5.30;;;;;;;6.36;59.98;100283.31;105669;1276;74557;-78
2021/12/25 12:01:35;;;;;;;;;;;;;;;7.10;60.09;100285.05;105712;1276;71197;-78
2021/12/25 12:04:11;;;;;;;8.00;4.90;;;;;;;7.39;57.05;100274.65;105532;1275;70624;-78
2021/12/25 12:06:46;;;;;;;8.60;5.90;;;;;;;7.67;55.88;100272.42;105489;1275;74715;-78
2021/12/25 12:09:29;;;;;;;9.20;6.10;;;;;;;7.44;56.99;100271.86;105464;1275;61239;-78
2021/12/25 12:12:27;;;;;;;10.20;7.00;;;;;;;7.17;56.73;100285.27;105752;1275;61298;-78
2021/12/25 12:15:19;;;;;;;9.10;5.70;;;;;;;6.47;58.58;100292.83;105584;1275;74501;-79
2021/12/25 12:18:24;;;;;;;8.70;5.40;;;;;;;6.44;58.52;100279.36;105657;1275;72499;-78
2021/12/25 12:21:17;;;;;;;9.10;5.40;;;;;;;5.90;59.82;100281.38;105468;1276;70095;-79
2021/12/25 12:26:45;;;;;;;16.40;7.90;;;;;;;5.78;60.41;100291.23;105362;1278;60355;-78
2021/12/25 12:29:38;;;;;;;13.70;7.50;;;;;;;5.55;61.08;100290.48;105434;1276;59382;-83
2021/12/25 12:32:27;;;;;;;11.00;6.70;;;;;;;5.50;61.13;100291.48;105522;1276;73746;-79
2021/12/25 12:34:56;;;;;;;11.20;6.50;;;;;;;5.29;61.99;100291.17;105604;1272;72015;-79
2021/12/25 12:37:32;;;;;;;11.30;6.90;;;;;;;5.18;62.15;100278.64;105443;1275;67950;-79
2021/12/25 12:40:07;;;;;;;12.00;7.00;;;;;;;5.05;63.07;100292.17;105394;1275;72943;-79
2021/12/25 12:42:43;;;;;;;10.40;5.80;;;;;;;4.90;63.43;100296.83;105538;1276;58964;-78
2021/12/25 12:45:31;;;;;;;8.50;6.00;;;;;;;4.93;62.37;100300.08;105574;1275;61336;-76
2021/12/25 12:48:22;;;;;;;12.30;6.90;;;;;;;4.94;62.35;100300.05;105618;1277;70795;-79
2021/12/25 12:50:56;;;;;;;12.10;6.50;;;;;;;4.81;62.52;100293.50;105531;1275;69832;-77
2021/12/25 12:53:25;;;;;;;11.90;7.30;;;;;;;4.75;62.60;100295.36;105604;1275;70334;-76
2021/12/25 12:56:04;;;;;;;12.40;7.40;;;;;;;4.73;62.49;100294.13;105665;1276;70842;-79
2021/12/25 12:58:32;;;;;;;13.20;7.20;;;;;;;4.69;62.43;100306.42;105573;1276;58892;-78
2021/12/25 13:01:11;;;;;;;11.90;7.20;;;;;;;4.63;62.67;100311.76;105444;1275;59651;-78
2021/12/25 13:03:40;;;;;;;9.30;6.50;;;;;;;4.54;63.11;100311.69;105404;1276;70926;-79
2021/12/25 13:06:13;;;;;;;16.50;8.30;;;;;;;4.53;63.62;100311.05;105416;1275;70076;-80
2021/12/25 13:08:44;;;;;;;13.70;7.90;;;;;;;4.46;63.86;100316.10;105524;1276;69616;-76
2021/12/25 13:11:31;;;;;;;12.50;7.90;;;;;;;4.41;63.74;100317.90;105488;1272;71574;-78
2021/12/25 13:14:04;;;;;;;11.90;7.40;;;;;;;4.32;64.40;100306.14;105610;1275;59385;-79
2021/12/25 13:16:41;;;;;;;15.30;8.70;;;;;;;4.36;64.31;100310.23;105356;1276;60653;-80
2021/12/25 13:19:10;;;;;;;13.60;7.80;;;;;;;4.33;64.45;100310.73;105500;1275;72445;-78
2021/12/25 13:21:40;;;;;;;12.40;7.70;;;;;;;4.25;65.13;100314.48;104978;1274;698717;-77
2021/12/25 13:24:16;;;;;;;14.10;7.30;;;;;;;4.21;65.15;100317.39;105501;1275;68801;-77